createdAt,value
2023-04-27T00:02:21.054Z,2.79
2023-04-27T00:04:49.490Z,2.79
2023-04-27T00:07:17.891Z,2.81
2023-04-27T00:09:45.763Z,2.82
2023-04-27T00:12:13.757Z,2.83
2023-04-27T00:14:41.682Z,2.85
2023-04-27T00:17:09.770Z,2.88
2023-04-27T00:19:37.779Z,2.89
2023-04-27T00:22:06.475Z,2.90
2023-04-27T00:24:34.755Z,2.86
2023-04-27T00:27:03.481Z,2.82
2023-04-27T00:29:31.463Z,2.77
2023-04-27T00:31:59.631Z,2.73
2023-04-27T00:34:27.525Z,2.67
2023-04-27T00:36:55.520Z,2.62
2023-04-27T00:39:23.423Z,2.57
2023-04-27T00:41:51.701Z,2.52
2023-04-27T00:44:27.390Z,2.46
2023-04-27T00:46:56.277Z,2.43
2023-04-27T00:49:26.911Z,2.40
2023-04-27T00:51:56.606Z,2.39
2023-04-27T00:54:25.227Z,2.40
2023-04-27T00:56:53.342Z,2.40
2023-04-27T00:59:22.048Z,2.41
2023-04-27T01:01:50.419Z,2.43
2023-04-27T01:04:20.464Z,2.46
2023-04-27T01:06:48.531Z,2.49
2023-04-27T01:09:19.801Z,2.52
2023-04-27T01:11:51.060Z,2.52
2023-04-27T01:14:19.038Z,2.52
2023-04-27T01:16:47.699Z,2.51
2023-04-27T01:19:16.044Z,2.50
2023-04-27T01:21:44.285Z,2.48
2023-04-27T01:24:12.289Z,2.46
2023-04-27T01:26:40.352Z,2.43
2023-04-27T01:29:08.252Z,2.41
2023-04-27T01:31:36.445Z,2.38
2023-04-27T01:34:04.379Z,2.36
2023-04-27T01:36:32.588Z,2.34
2023-04-27T01:39:00.606Z,2.33
2023-04-27T01:41:28.631Z,2.34
2023-04-27T01:43:56.584Z,2.35
2023-04-27T01:46:24.607Z,2.37
2023-04-27T01:48:52.700Z,2.39
2023-04-27T01:51:20.666Z,2.42
2023-04-27T01:53:48.887Z,2.46
2023-04-27T01:56:17.516Z,2.50
2023-04-27T01:58:46.377Z,2.52
2023-04-27T02:01:14.996Z,2.52
2023-04-27T02:03:43.212Z,2.49
2023-04-27T02:06:13.259Z,2.46
2023-04-27T02:08:41.512Z,2.43
2023-04-27T02:11:09.855Z,2.39
2023-04-27T02:13:38.067Z,2.37
2023-04-27T02:16:06.980Z,2.34
2023-04-27T02:18:36.340Z,2.32
2023-04-27T02:21:10.154Z,2.30
2023-04-27T02:23:38.155Z,2.29
2023-04-27T02:26:06.169Z,2.29
2023-04-27T02:28:34.239Z,2.29
2023-04-27T02:31:03.093Z,2.30
2023-04-27T02:33:31.553Z,2.32
2023-04-27T02:35:59.461Z,2.33
2023-04-27T02:38:30.594Z,2.33
2023-04-27T02:40:58.662Z,2.33
2023-04-27T02:43:27.392Z,2.32
2023-04-27T02:45:55.656Z,2.29
2023-04-27T02:48:23.559Z,2.26
2023-04-27T02:50:51.986Z,2.21
2023-04-27T02:53:20.267Z,2.17
2023-04-27T02:55:50.184Z,2.14
2023-04-27T02:58:18.391Z,2.11
2023-04-27T03:00:47.190Z,2.09
2023-04-27T03:03:16.828Z,2.08
2023-04-27T03:05:45.079Z,2.08
2023-04-27T03:08:13.090Z,2.09
2023-04-27T03:10:41.141Z,2.10
2023-04-27T03:13:11.034Z,2.11
2023-04-27T03:15:39.052Z,2.14
2023-04-27T03:18:07.157Z,2.16
2023-04-27T03:20:35.209Z,2.17
2023-04-27T03:23:03.298Z,2.19
2023-04-27T03:25:31.446Z,2.20
2023-04-27T03:27:59.538Z,2.22
2023-04-27T03:30:27.692Z,2.22
2023-04-27T03:32:56.591Z,2.24
2023-04-27T03:35:25.259Z,2.26
2023-04-27T03:37:53.193Z,2.30
2023-04-27T03:40:21.978Z,2.34
2023-04-27T03:42:49.901Z,2.39
2023-04-27T03:45:19.341Z,2.45
2023-04-27T03:47:47.420Z,2.55
2023-04-27T03:50:16.601Z,2.69
2023-04-27T03:52:44.645Z,2.84
2023-04-27T03:55:12.689Z,3.01
2023-04-27T03:57:41.727Z,3.17
2023-04-27T04:00:12.360Z,3.34
2023-04-27T04:02:43.293Z,3.50
2023-04-27T04:05:12.706Z,3.64
2023-04-27T04:07:44.069Z,3.78
2023-04-27T04:10:12.889Z,3.91
2023-04-27T04:12:40.981Z,4.03
2023-04-27T04:15:09.560Z,4.14
2023-04-27T04:17:39.523Z,4.23
2023-04-27T04:20:10.857Z,4.34
2023-04-27T04:22:39.548Z,4.44
2023-04-27T04:25:08.980Z,4.55
2023-04-27T04:27:37.799Z,4.64
2023-04-27T04:30:07.215Z,4.72
2023-04-27T04:32:38.293Z,4.83
2023-04-27T04:35:07.809Z,4.91
2023-04-27T04:37:36.625Z,5.01
2023-04-27T04:40:09.315Z,5.09
2023-04-27T04:42:38.286Z,5.19
2023-04-27T04:45:07.637Z,5.29
2023-04-27T04:47:36.826Z,5.35
2023-04-27T04:50:05.509Z,5.44
2023-04-27T04:52:33.587Z,5.59
2023-04-27T04:55:02.002Z,5.68
2023-04-27T04:57:31.577Z,5.74
2023-04-27T04:59:59.726Z,5.80
2023-04-27T05:02:28.666Z,5.84
2023-04-27T05:04:57.879Z,5.86
2023-04-27T05:07:27.122Z,5.85
2023-04-27T05:09:55.874Z,5.85
2023-04-27T05:12:24.270Z,5.88
2023-04-27T05:14:53.122Z,5.94
2023-04-27T05:17:21.386Z,5.99
2023-04-27T05:19:49.750Z,6.03
2023-04-27T05:22:18.254Z,6.05
2023-04-27T05:24:47.133Z,6.08
2023-04-27T05:27:15.787Z,6.34
2023-04-27T05:29:44.431Z,6.81
2023-04-27T05:32:12.857Z,7.40
2023-04-27T05:34:41.254Z,8.07
2023-04-27T05:37:09.446Z,8.62
2023-04-27T05:39:37.424Z,9.22
2023-04-27T05:42:05.903Z,9.59
2023-04-27T05:44:34.785Z,9.61
2023-04-27T05:47:02.940Z,9.82
2023-04-27T05:49:31.737Z,10.01
2023-04-27T05:52:00.068Z,10.18
2023-04-27T05:54:28.596Z,10.34
2023-04-27T05:56:56.702Z,10.32
2023-04-27T05:59:25.224Z,10.54
2023-04-27T06:01:53.914Z,10.82
2023-04-27T06:04:22.706Z,10.47
2023-04-27T06:06:51.010Z,10.24
2023-04-27T06:09:19.753Z,10.02
2023-04-27T06:11:47.874Z,10.34
2023-04-27T06:14:16.603Z,10.47
2023-04-27T06:16:44.678Z,10.66
2023-04-27T06:19:12.945Z,10.53
2023-04-27T06:21:41.404Z,10.68
2023-04-27T06:24:09.703Z,10.85
2023-04-27T06:26:38.157Z,10.85
2023-04-27T06:29:08.890Z,10.66
2023-04-27T06:31:37.546Z,9.95
2023-04-27T06:34:05.651Z,10.08
2023-04-27T06:36:34.019Z,10.34
2023-04-27T06:39:02.589Z,10.70
2023-04-27T06:41:30.889Z,10.43
2023-04-27T06:43:59.587Z,10.64
2023-04-27T06:46:28.125Z,10.63
2023-04-27T06:48:57.061Z,10.35
2023-04-27T06:51:25.345Z,10.61
2023-04-27T06:53:56.703Z,10.15
2023-04-27T06:56:25.029Z,10.55
2023-04-27T06:58:53.464Z,10.33
2023-04-27T07:01:21.862Z,9.89
2023-04-27T07:03:50.994Z,9.80
2023-04-27T07:06:19.788Z,10.32
2023-04-27T07:08:48.011Z,10.43
2023-04-27T07:11:16.605Z,10.27
2023-04-27T07:13:44.879Z,9.57
2023-04-27T07:16:14.009Z,9.20
2023-04-27T07:18:43.669Z,9.08
2023-04-27T07:21:12.070Z,8.92
2023-04-27T07:23:44.072Z,9.09
2023-04-27T07:26:13.165Z,9.00
2023-04-27T07:28:41.352Z,8.98
2023-04-27T07:31:11.346Z,9.39
2023-04-27T07:33:40.204Z,9.63
2023-04-27T07:36:09.110Z,9.36
2023-04-27T07:38:38.690Z,9.46
2023-04-27T07:41:07.489Z,10.10
2023-04-27T07:43:35.948Z,10.17
2023-04-27T07:46:04.961Z,10.14
2023-04-27T07:48:34.107Z,10.42
2023-04-27T07:51:02.535Z,10.63
2023-04-27T07:53:31.400Z,10.44
2023-04-27T07:55:59.966Z,10.14
2023-04-27T07:58:28.403Z,9.97
2023-04-27T08:00:57.313Z,10.22
2023-04-27T08:03:26.476Z,10.63
2023-04-27T08:05:56.612Z,11.09
2023-04-27T08:08:26.004Z,11.09
2023-04-27T08:10:54.797Z,10.77
2023-04-27T08:13:25.527Z,10.11
2023-04-27T08:15:58.586Z,9.57
2023-04-27T08:18:27.386Z,9.26
2023-04-27T08:20:56.079Z,9.17
2023-04-27T08:23:29.301Z,9.38
2023-04-27T08:25:57.905Z,9.71
2023-04-27T08:28:26.444Z,9.75
2023-04-27T08:30:55.309Z,9.61
2023-04-27T08:33:23.682Z,9.54
2023-04-27T08:35:54.966Z,9.51
2023-04-27T08:38:25.524Z,9.35
2023-04-27T08:40:54.629Z,9.24
2023-04-27T08:43:23.334Z,9.07
2023-04-27T08:45:53.336Z,9.17
2023-04-27T08:48:23.577Z,9.24
2023-04-27T08:50:54.224Z,8.97
2023-04-27T08:53:25.621Z,8.76
2023-04-27T08:55:57.250Z,8.89
2023-04-27T08:58:37.559Z,8.69
2023-04-27T09:01:08.207Z,8.55
2023-04-27T09:03:38.539Z,8.76
2023-04-27T09:06:08.203Z,8.99
2023-04-27T09:08:42.863Z,9.13
2023-04-27T09:11:11.666Z,9.36
2023-04-27T09:13:42.379Z,9.37
2023-04-27T09:16:14.215Z,9.12
2023-04-27T09:18:43.972Z,8.99
2023-04-27T09:21:23.521Z,8.98
2023-04-27T09:23:52.483Z,9.05
2023-04-27T09:26:24.187Z,9.01
2023-04-27T09:28:57.133Z,9.20
2023-04-27T09:31:36.119Z,8.92
2023-04-27T09:34:04.517Z,8.99
2023-04-27T09:36:32.900Z,9.42
2023-04-27T09:39:06.952Z,9.73
2023-04-27T09:41:36.257Z,9.96
2023-04-27T09:44:05.144Z,10.00
2023-04-27T09:46:34.466Z,10.02
2023-04-27T09:49:05.705Z,10.27
2023-04-27T09:51:34.813Z,10.14
2023-04-27T09:54:05.979Z,9.92
2023-04-27T09:57:09.541Z,9.75
2023-04-27T10:00:07.814Z,9.45
2023-04-27T10:03:03.017Z,9.22
2023-04-27T10:06:00.218Z,9.30
2023-04-27T10:08:30.005Z,9.21
2023-04-27T10:10:58.269Z,9.48
2023-04-27T10:13:27.515Z,9.76
2023-04-27T10:15:55.821Z,9.50
2023-04-27T10:18:31.419Z,9.32
2023-04-27T10:21:12.644Z,9.39
2023-04-27T10:23:48.898Z,9.59
2023-04-27T10:26:24.739Z,9.78
2023-04-27T10:29:07.670Z,9.72
2023-04-27T10:31:43.539Z,9.50
2023-04-27T10:34:19.143Z,9.49
2023-04-27T10:36:49.641Z,9.65
2023-04-27T10:39:29.837Z,9.69
2023-04-27T10:42:05.352Z,9.99
2023-04-27T10:44:36.063Z,10.39
2023-04-27T10:47:22.209Z,10.66
2023-04-27T10:49:57.110Z,10.22
2023-04-27T10:52:26.847Z,9.66
2023-04-27T10:54:55.281Z,9.42
2023-04-27T10:57:23.723Z,9.44
2023-04-27T10:59:54.039Z,9.36
2023-04-27T11:02:27.707Z,9.48
2023-04-27T11:04:57.052Z,9.50
2023-04-27T11:07:27.936Z,9.59
2023-04-27T11:09:57.308Z,9.66
2023-04-27T11:12:25.932Z,9.62
2023-04-27T11:14:58.873Z,9.72
2023-04-27T11:17:31.212Z,9.75
2023-04-27T11:19:59.517Z,10.01
2023-04-27T11:22:28.708Z,10.06
2023-04-27T11:24:57.038Z,10.05
2023-04-27T11:27:37.325Z,9.58
2023-04-27T11:30:07.791Z,9.16
2023-04-27T11:32:36.556Z,9.15
2023-04-27T11:35:05.414Z,9.29
2023-04-27T11:37:33.781Z,9.13
2023-04-27T11:40:02.213Z,9.33
2023-04-27T11:42:31.643Z,9.47
2023-04-27T11:45:02.821Z,9.64
2023-04-27T11:47:33.811Z,9.85
2023-04-27T11:50:05.947Z,10.05
2023-04-27T11:52:40.162Z,9.91
2023-04-27T11:55:11.047Z,9.81
2023-04-27T11:57:39.399Z,9.74
2023-04-27T12:00:11.754Z,9.55
2023-04-27T12:02:44.841Z,9.59
2023-04-27T12:05:14.914Z,9.76
2023-04-27T12:07:44.388Z,9.94
2023-04-27T12:10:12.766Z,9.95
2023-04-27T12:12:41.336Z,9.47
2023-04-27T12:15:10.554Z,9.15
2023-04-27T12:17:40.012Z,9.06
2023-04-27T12:20:10.368Z,8.92
2023-04-27T12:22:42.039Z,8.77
2023-04-27T12:25:10.810Z,8.63
2023-04-27T12:27:40.094Z,8.64
2023-04-27T12:30:08.927Z,8.77
2023-04-27T12:32:37.500Z,8.94
2023-04-27T12:35:07.208Z,8.89
2023-04-27T12:37:36.561Z,8.96
2023-04-27T12:40:07.040Z,9.12
2023-04-27T12:42:36.078Z,9.54
2023-04-27T12:45:05.013Z,9.78
2023-04-27T12:50:07.653Z,9.71
2023-04-27T12:52:36.022Z,9.57
2023-04-27T12:55:06.352Z,9.49
2023-04-27T12:57:35.122Z,9.31
2023-04-27T13:00:05.748Z,9.38
2023-04-27T13:02:35.208Z,9.07
2023-04-27T13:05:04.884Z,9.03
2023-04-27T13:07:33.644Z,9.04
2023-04-27T13:10:03.638Z,9.18
2023-04-27T13:12:32.913Z,9.20
2023-04-27T13:15:01.498Z,9.34
2023-04-27T13:17:30.865Z,9.38
2023-04-27T13:19:59.041Z,9.29
2023-04-27T13:22:28.557Z,9.12
2023-04-27T13:24:56.871Z,8.91
2023-04-27T13:27:28.552Z,8.86
2023-04-27T13:29:56.891Z,9.04
2023-04-27T13:32:25.448Z,9.18
2023-04-27T13:34:53.869Z,9.29
2023-04-27T13:37:22.310Z,9.47
2023-04-27T13:39:50.747Z,9.46
2023-04-27T13:42:19.013Z,9.46
2023-04-27T13:44:47.271Z,9.39
2023-04-27T13:47:15.681Z,9.34
2023-04-27T13:49:44.145Z,9.28
2023-04-27T13:52:13.158Z,9.33
2023-04-27T13:54:42.107Z,9.34
2023-04-27T13:57:11.062Z,9.29
2023-04-27T13:59:39.283Z,9.15
2023-04-27T14:02:08.542Z,8.94
2023-04-27T14:04:36.846Z,8.98
2023-04-27T14:07:05.611Z,9.14
2023-04-27T14:09:34.282Z,8.90
2023-04-27T14:12:03.099Z,8.93
2023-04-27T14:14:31.499Z,8.77
2023-04-27T14:16:59.912Z,8.73
2023-04-27T14:19:28.365Z,8.67
2023-04-27T14:21:56.728Z,8.79
2023-04-27T14:24:24.951Z,8.95
2023-04-27T14:26:53.288Z,8.94
2023-04-27T14:29:21.473Z,8.93
2023-04-27T14:31:50.311Z,9.04
2023-04-27T14:34:20.175Z,9.18
2023-04-27T14:36:50.310Z,9.05
2023-04-27T14:39:19.212Z,8.93
2023-04-27T14:41:47.324Z,8.87
2023-04-27T14:44:15.617Z,8.83
2023-04-27T14:46:43.863Z,8.83
2023-04-27T14:49:12.454Z,8.81
2023-04-27T14:51:43.323Z,8.84
2023-04-27T14:54:12.048Z,8.74
2023-04-27T14:56:40.606Z,8.71
2023-04-27T14:59:08.908Z,8.70
2023-04-27T15:01:37.289Z,8.68
2023-04-27T15:04:05.781Z,8.64
2023-04-27T15:06:34.242Z,8.69
2023-04-27T15:09:02.484Z,8.65
2023-04-27T15:11:30.783Z,8.58
2023-04-27T15:13:59.296Z,8.58
2023-04-27T15:16:27.607Z,8.64
2023-04-27T15:18:55.873Z,8.53
2023-04-27T15:21:24.316Z,8.45
2023-04-27T15:23:52.691Z,8.48
2023-04-27T15:26:22.445Z,8.54
2023-04-27T15:28:51.401Z,8.56
2023-04-27T15:31:20.099Z,8.56
2023-04-27T15:33:48.412Z,8.60
2023-04-27T15:36:17.883Z,8.60
2023-04-27T15:38:46.635Z,8.64
2023-04-27T15:41:15.076Z,8.59
2023-04-27T15:43:43.301Z,8.57
2023-04-27T15:46:11.590Z,8.51
2023-04-27T15:48:40.004Z,8.48
2023-04-27T15:51:10.232Z,8.49
2023-04-27T15:53:39.037Z,8.45
2023-04-27T15:56:07.628Z,8.44
2023-04-27T15:58:36.265Z,8.43
2023-04-27T16:01:04.977Z,8.38
2023-04-27T16:03:34.982Z,8.28
2023-04-27T16:06:03.374Z,8.31
2023-04-27T16:08:32.643Z,8.24
2023-04-27T16:11:00.896Z,8.29
2023-04-27T16:13:32.938Z,8.39
2023-04-27T16:16:01.345Z,8.39
2023-04-27T16:18:29.539Z,8.35
2023-04-27T16:20:58.287Z,8.25
2023-04-27T16:23:26.691Z,8.20
2023-04-27T16:25:55.131Z,8.13
2023-04-27T16:28:23.923Z,8.11
2023-04-27T16:30:53.018Z,8.10
2023-04-27T16:33:21.403Z,8.04
2023-04-27T16:35:50.112Z,7.96
2023-04-27T16:38:18.073Z,8.03
2023-04-27T16:40:46.182Z,8.08
2023-04-27T16:43:14.565Z,8.08
2023-04-27T16:45:42.799Z,7.99
2023-04-27T16:48:12.263Z,7.98
2023-04-27T16:50:41.275Z,7.94
2023-04-27T16:53:13.971Z,7.97
2023-04-27T16:55:42.402Z,7.96
2023-04-27T16:58:10.662Z,7.93
2023-04-27T17:00:40.461Z,7.92
2023-04-27T17:03:09.998Z,7.93
2023-04-27T17:05:38.312Z,7.93
2023-04-27T17:08:08.891Z,7.94
2023-04-27T17:10:37.174Z,7.92
2023-04-27T17:13:07.866Z,7.90
2023-04-27T17:15:36.162Z,7.90
2023-04-27T17:18:05.167Z,7.87
2023-04-27T17:20:33.726Z,7.87
2023-04-27T17:23:01.902Z,7.88
2023-04-27T17:25:30.987Z,7.88
2023-04-27T17:28:01.146Z,7.83
2023-04-27T17:30:29.545Z,7.81
2023-04-27T17:32:58.024Z,7.77
2023-04-27T17:35:26.934Z,7.75
2023-04-27T17:37:55.254Z,7.71
2023-04-27T17:40:23.349Z,7.68
2023-04-27T17:42:51.558Z,7.65
2023-04-27T17:45:19.903Z,7.65
2023-04-27T17:47:49.197Z,7.63
2023-04-27T17:50:17.678Z,7.59
2023-04-27T17:52:47.716Z,7.57
2023-04-27T17:55:15.671Z,7.54
2023-04-27T17:57:44.207Z,7.56
2023-04-27T18:00:13.205Z,7.55
2023-04-27T18:02:41.921Z,7.50
2023-04-27T18:05:10.456Z,7.48
2023-04-27T18:07:38.489Z,7.41
2023-04-27T18:10:08.016Z,7.37
2023-04-27T18:12:36.741Z,7.34
2023-04-27T18:15:07.680Z,7.32
2023-04-27T18:17:37.828Z,7.31
2023-04-27T18:20:10.150Z,7.30
2023-04-27T18:22:40.334Z,7.26
2023-04-27T18:25:09.926Z,7.26
2023-04-27T18:27:38.413Z,7.27
2023-04-27T18:30:10.753Z,7.26
2023-04-27T18:32:38.889Z,7.28
2023-04-27T18:35:07.171Z,7.29
2023-04-27T18:37:35.294Z,7.24
2023-04-27T18:40:05.967Z,7.29
2023-04-27T18:42:34.201Z,7.26
2023-04-27T18:45:03.681Z,7.28
2023-04-27T18:47:32.297Z,7.29
2023-04-27T18:50:00.729Z,7.29
2023-04-27T18:52:28.806Z,7.30
2023-04-27T18:54:57.141Z,7.30
2023-04-27T18:57:26.642Z,7.30
2023-04-27T18:59:54.605Z,7.30
2023-04-27T19:02:23.110Z,7.32
2023-04-27T19:04:56.933Z,7.31
2023-04-27T19:07:31.302Z,7.32
2023-04-27T19:10:00.332Z,7.28
2023-04-27T19:12:28.289Z,7.27
2023-04-27T19:14:56.507Z,7.25
2023-04-27T19:17:24.974Z,7.23
2023-04-27T19:19:53.832Z,7.21
2023-04-27T19:22:22.084Z,7.19
2023-04-27T19:24:50.621Z,7.20
2023-04-27T19:27:18.847Z,7.19
2023-04-27T19:29:58.359Z,7.18
2023-04-27T19:32:27.698Z,7.17
2023-04-27T19:34:57.393Z,7.16
2023-04-27T19:37:28.193Z,7.15
2023-04-27T19:39:56.071Z,7.15
2023-04-27T19:42:25.193Z,7.11
2023-04-27T19:44:53.230Z,7.09
2023-04-27T19:47:21.324Z,7.08
2023-04-27T19:49:49.480Z,7.06
2023-04-27T19:52:17.684Z,7.04
2023-04-27T19:54:51.632Z,7.03
2023-04-27T19:57:20.834Z,6.98
2023-04-27T19:59:49.012Z,6.96
2023-04-27T20:02:17.451Z,6.96
2023-04-27T20:04:45.949Z,6.95
2023-04-27T20:07:14.322Z,6.93
2023-04-27T20:09:42.370Z,6.93
2023-04-27T20:12:23.728Z,6.91
2023-04-27T20:14:57.296Z,6.89
2023-04-27T20:17:31.023Z,6.87
2023-04-27T20:19:59.362Z,6.85
2023-04-27T20:22:27.620Z,6.85
2023-04-27T20:24:59.250Z,6.85
2023-04-27T20:27:27.579Z,6.85
2023-04-27T20:29:55.584Z,6.84
2023-04-27T20:32:23.697Z,6.81
2023-04-27T20:34:51.852Z,6.80
2023-04-27T20:37:19.968Z,6.80
2023-04-27T20:39:48.420Z,6.79
2023-04-27T20:42:16.466Z,6.78
2023-04-27T20:44:48.573Z,6.77
2023-04-27T20:47:16.629Z,6.77
2023-04-27T20:49:44.794Z,6.76
2023-04-27T20:52:12.872Z,6.75
2023-04-27T20:54:41.331Z,6.76
2023-04-27T20:57:13.609Z,6.76
2023-04-27T20:59:41.675Z,6.74
2023-04-27T21:02:09.788Z,6.73
2023-04-27T21:04:37.911Z,6.72
2023-04-27T21:07:06.199Z,6.69
2023-04-27T21:09:35.222Z,6.66
2023-04-27T21:12:03.201Z,6.64
2023-04-27T21:14:31.637Z,6.61
2023-04-27T21:17:00.306Z,6.59
2023-04-27T21:19:28.575Z,6.58
2023-04-27T21:21:56.421Z,6.56
2023-04-27T21:24:24.879Z,6.54
2023-04-27T21:26:53.296Z,6.52
2023-04-27T21:29:21.547Z,6.51
2023-04-27T21:31:49.838Z,6.49
2023-04-27T21:34:18.065Z,6.47
2023-04-27T21:36:46.194Z,6.45
2023-04-27T21:39:14.145Z,6.43
2023-04-27T21:41:42.269Z,6.41
2023-04-27T21:44:10.337Z,6.39
2023-04-27T21:46:38.437Z,6.38
2023-04-27T21:49:06.419Z,6.35
2023-04-27T21:51:35.037Z,6.33
2023-04-27T21:54:02.949Z,6.29
2023-04-27T21:56:31.097Z,6.26
2023-04-27T21:58:59.115Z,6.25
2023-04-27T22:01:27.356Z,6.24
2023-04-27T22:03:56.001Z,6.22
2023-04-27T22:06:24.338Z,6.20
2023-04-27T22:08:53.006Z,6.19
2023-04-27T22:11:21.424Z,6.18
2023-04-27T22:13:49.386Z,6.17
2023-04-27T22:16:17.439Z,6.16
2023-04-27T22:18:45.572Z,6.14
2023-04-27T22:21:13.754Z,6.14
2023-04-27T22:23:41.930Z,6.14
2023-04-27T22:26:09.969Z,6.13
2023-04-27T22:28:38.002Z,6.13
2023-04-27T22:31:06.307Z,6.13
2023-04-27T22:33:34.575Z,6.12
2023-04-27T22:36:02.821Z,6.12
2023-04-27T22:38:30.885Z,6.11
2023-04-27T22:40:58.787Z,6.10
2023-04-27T22:43:26.761Z,6.09
2023-04-27T22:45:54.774Z,6.08
2023-04-27T22:48:22.749Z,6.07
2023-04-27T22:50:53.812Z,6.05
2023-04-27T22:53:22.643Z,6.03
2023-04-27T22:55:51.024Z,6.01
2023-04-27T22:58:18.858Z,5.99
2023-04-27T23:00:47.019Z,5.97
2023-04-27T23:03:15.105Z,5.96
2023-04-27T23:05:43.412Z,5.94
2023-04-27T23:08:13.377Z,5.91
2023-04-27T23:10:41.393Z,5.90
2023-04-27T23:13:12.953Z,5.90
2023-04-27T23:15:40.932Z,5.88
2023-04-27T23:18:09.376Z,5.86
2023-04-27T23:20:37.301Z,5.84
2023-04-27T23:23:05.252Z,5.82
2023-04-27T23:25:33.798Z,5.78
2023-04-27T23:28:01.915Z,5.75
2023-04-27T23:30:30.843Z,5.70
2023-04-27T23:32:58.734Z,5.65
2023-04-27T23:35:28.923Z,5.59
2023-04-27T23:37:57.843Z,5.54
2023-04-27T23:40:26.338Z,5.48
2023-04-27T23:42:54.302Z,5.41
2023-04-27T23:45:22.271Z,5.34
2023-04-27T23:47:50.397Z,5.27
2023-04-27T23:50:18.490Z,5.19
2023-04-27T23:52:46.669Z,5.11
2023-04-27T23:55:14.811Z,5.05
2023-04-27T23:57:43.039Z,4.98
